createdAt,value
2023-04-01T00:01:27.012Z,4.10
2023-04-01T00:07:16.247Z,4.00
2023-04-01T00:13:50.020Z,2.90
2023-04-01T00:20:53.712Z,2.70
2023-04-01T00:27:26.142Z,5.20
2023-04-01T00:33:35.248Z,2.70
2023-04-01T00:39:56.460Z,3.80
2023-04-01T00:46:34.265Z,3.50
2023-04-01T00:52:53.661Z,3.50
2023-04-01T00:59:24.688Z,3.90
2023-04-01T01:06:12.308Z,2.90
2023-04-01T01:12:37.889Z,3.70
2023-04-01T01:19:37.391Z,4.60
2023-04-01T01:26:32.738Z,4.80
2023-04-01T01:32:53.720Z,4.50
2023-04-01T01:39:44.788Z,4.60
2023-04-01T01:45:08.621Z,5.90
2023-04-01T01:50:39.389Z,5.40
2023-04-01T01:57:01.279Z,4.00
2023-04-01T02:03:37.810Z,7.10
2023-04-01T02:10:01.618Z,8.30
2023-04-01T02:16:53.704Z,6.10
2023-04-01T02:23:11.768Z,6.50
2023-04-01T02:29:58.952Z,8.40
2023-04-01T02:36:43.999Z,7.80
2023-04-01T02:43:18.386Z,7.00
2023-04-01T02:50:08.915Z,5.90
2023-04-01T02:56:56.733Z,8.60
2023-04-01T03:03:46.462Z,5.10
2023-04-01T03:10:32.130Z,6.60
2023-04-01T03:16:41.306Z,6.70
2023-04-01T03:22:31.989Z,7.10
2023-04-01T03:28:58.417Z,5.50
2023-04-01T03:35:06.939Z,5.50
2023-04-01T03:41:31.840Z,5.30
2023-04-01T03:48:03.063Z,6.50
2023-04-01T03:54:07.239Z,5.30
2023-04-01T04:00:16.819Z,5.20
2023-04-01T04:06:26.399Z,5.10
2023-04-01T04:13:12.600Z,4.80
2023-04-01T04:19:03.190Z,4.50
2023-04-01T04:25:28.777Z,7.20
2023-04-01T04:31:24.933Z,4.20
2023-04-01T04:36:55.104Z,5.80
2023-04-01T04:42:10.097Z,6.60
2023-04-01T04:47:31.845Z,4.80
2023-04-01T04:52:47.047Z,6.20
2023-04-01T04:58:02.507Z,8.00
2023-04-01T05:03:08.893Z,6.20
2023-04-01T05:08:37.079Z,5.50
2023-04-01T05:13:46.125Z,6.40
2023-04-01T05:19:00.309Z,7.60
2023-04-01T05:24:44.118Z,5.10
2023-04-01T05:30:02.675Z,6.80
2023-04-01T05:36:49.520Z,6.80
2023-04-01T05:42:39.403Z,5.60
2023-04-01T05:48:53.520Z,6.70
2023-04-01T05:54:38.964Z,6.40
2023-04-01T06:00:24.072Z,6.50
2023-04-01T06:05:50.468Z,7.50
2023-04-01T06:12:09.414Z,6.60
2023-04-01T06:18:44.252Z,9.10
2023-04-01T06:25:03.327Z,6.90
2023-04-01T06:31:58.476Z,7.20
2023-04-01T06:38:17.374Z,9.40
2023-04-01T06:45:18.354Z,6.80
2023-04-01T06:52:36.359Z,6.90
2023-04-01T06:59:03.076Z,7.80
2023-04-01T07:04:46.075Z,8.20
2023-04-01T07:10:11.436Z,9.00
2023-04-01T07:16:40.860Z,8.50
2023-04-01T07:22:39.982Z,6.60
2023-04-01T07:29:15.555Z,8.70
2023-04-01T07:35:55.066Z,7.00
2023-04-01T07:41:36.441Z,5.80
2023-04-01T07:47:31.790Z,6.60
2023-04-01T07:52:53.424Z,6.10
2023-04-01T07:58:21.928Z,4.50
2023-04-01T08:04:45.995Z,5.20
2023-04-01T08:10:24.548Z,3.40
2023-04-01T08:16:36.661Z,5.80
2023-04-01T08:21:46.887Z,3.70
2023-04-01T08:26:53.106Z,2.80
2023-04-01T08:32:10.083Z,3.20
2023-04-01T08:37:53.885Z,8.90
2023-04-01T08:43:35.387Z,3.80
2023-04-01T08:48:51.614Z,3.80
2023-04-01T08:54:18.131Z,3.80
2023-04-01T09:00:11.220Z,1.70
2023-04-01T09:06:06.307Z,2.40
2023-04-01T09:11:59.776Z,1.90
2023-04-01T09:17:47.470Z,3.30
2023-04-01T09:23:29.260Z,3.00
2023-04-01T11:51:00.469Z,2.00
2023-04-01T11:56:32.733Z,2.00
2023-04-01T12:01:44.415Z,1.50
2023-04-01T12:07:00.455Z,1.60
2023-04-01T12:12:25.261Z,1.70
2023-04-01T12:18:09.232Z,1.20
2023-04-01T12:23:11.324Z,0.90
2023-04-01T12:28:42.944Z,1.30
2023-04-01T12:34:03.152Z,5.20
2023-04-01T12:39:20.211Z,3.30
2023-04-01T12:45:04.305Z,1.50
2023-04-01T12:50:18.357Z,1.40
2023-04-01T12:55:44.018Z,1.80
2023-04-01T13:01:02.966Z,1.80
2023-04-01T13:06:45.787Z,1.80
2023-04-01T13:13:11.198Z,1.50
2023-04-01T13:18:33.545Z,1.20
2023-04-01T13:24:10.438Z,1.50
2023-04-01T13:29:47.099Z,1.60
2023-04-01T13:35:01.459Z,2.10
2023-04-01T13:41:02.191Z,2.10
2023-04-01T13:46:51.691Z,2.60
2023-04-01T13:52:25.488Z,3.30
2023-04-01T13:57:40.533Z,3.60
2023-04-01T14:02:55.859Z,3.20
2023-04-01T14:08:20.928Z,3.20
2023-04-01T14:13:42.289Z,3.10
2023-04-01T14:19:22.201Z,1.60
2023-04-01T14:24:54.107Z,1.30
2023-04-01T14:30:13.344Z,1.90
2023-04-01T14:35:54.226Z,5.20
2023-04-01T14:41:43.144Z,6.60
2023-04-01T14:47:30.722Z,2.90
2023-04-01T14:52:44.489Z,4.00
2023-04-01T14:58:13.693Z,3.20
2023-04-01T15:04:10.470Z,3.90
2023-04-01T15:09:39.926Z,3.30
2023-04-01T15:15:26.501Z,3.00
2023-04-01T15:20:57.998Z,3.40
2023-04-01T15:26:21.571Z,2.30
2023-04-01T15:31:39.715Z,3.60
2023-04-01T15:37:06.276Z,3.30
2023-04-01T15:42:30.564Z,3.10
2023-04-01T15:53:37.642Z,4.70
2023-04-01T15:59:06.467Z,4.40
2023-04-01T16:04:37.424Z,4.00
2023-04-01T16:09:58.088Z,3.90
2023-04-01T16:15:25.601Z,2.50
2023-04-01T16:21:09.059Z,7.30
2023-04-01T16:26:24.442Z,6.70
2023-04-01T16:31:58.571Z,6.30
2023-04-01T16:37:38.632Z,7.20
2023-04-01T16:43:10.164Z,7.30
2023-04-01T16:48:46.537Z,6.40
2023-04-01T16:54:32.067Z,5.90
2023-04-01T16:59:42.177Z,8.60
2023-04-01T17:05:14.524Z,7.40
2023-04-01T17:11:00.203Z,5.50
2023-04-01T17:16:29.389Z,4.30
2023-04-01T17:22:04.905Z,5.20
2023-04-01T17:27:35.028Z,4.30
2023-04-01T17:33:06.567Z,2.40
2023-04-01T17:38:46.096Z,3.10
2023-04-01T17:44:04.552Z,4.00
2023-04-01T17:49:27.934Z,3.90
2023-04-01T17:55:19.321Z,6.50
2023-04-01T18:00:42.315Z,6.30
2023-04-01T18:06:11.517Z,5.80
2023-04-01T18:11:40.189Z,7.50
2023-04-01T18:17:33.851Z,7.70
2023-04-01T18:22:56.313Z,7.40
2023-04-01T18:28:35.504Z,7.70
2023-04-01T18:34:21.649Z,7.20
2023-04-01T18:39:38.300Z,8.30
2023-04-01T18:45:08.082Z,10.20
2023-04-01T18:50:45.116Z,11.60
2023-04-01T18:55:57.381Z,14.40
2023-04-01T19:01:13.901Z,15.80
2023-04-01T19:06:31.855Z,18.50
2023-04-01T19:12:01.318Z,18.80
2023-04-01T19:17:48.189Z,28.60
2023-04-01T19:23:08.852Z,19.40
2023-04-01T19:34:25.906Z,24.00
2023-04-01T19:39:49.951Z,20.40
2023-04-01T19:45:34.245Z,19.90
2023-04-01T19:51:21.224Z,20.10
2023-04-01T19:56:44.721Z,22.40
2023-04-01T20:02:29.134Z,24.00
2023-04-01T20:07:47.250Z,26.70
2023-04-01T20:13:07.858Z,19.80
2023-04-01T20:18:49.840Z,24.00
2023-04-01T20:24:02.942Z,30.80
2023-04-01T20:30:01.073Z,37.20
2023-04-01T20:35:48.612Z,48.00
2023-04-01T20:41:28.580Z,32.90
2023-04-01T20:46:57.258Z,36.90
2023-04-01T20:52:42.053Z,25.30
2023-04-01T20:58:18.820Z,20.50
2023-04-01T21:03:32.489Z,18.30
2023-04-01T21:09:01.773Z,20.50
2023-04-01T21:14:37.062Z,25.10
2023-04-01T21:20:07.630Z,36.80
2023-04-01T21:25:57.986Z,37.70
2023-04-01T21:31:47.614Z,33.30
2023-04-01T21:37:04.466Z,26.60
2023-04-01T21:42:54.928Z,29.40
2023-04-01T21:48:25.419Z,36.60
2023-04-01T21:54:23.237Z,42.70
2023-04-01T22:00:12.278Z,48.50
2023-04-01T22:05:18.737Z,57.60
2023-04-01T22:10:40.201Z,55.60
2023-04-01T22:16:13.104Z,52.60
2023-04-01T22:21:50.322Z,55.70
2023-04-01T22:27:20.553Z,55.40
2023-04-01T22:33:01.568Z,51.60
2023-04-01T22:38:36.913Z,51.70
2023-04-01T22:43:50.473Z,56.90
2023-04-01T22:49:02.821Z,60.30
2023-04-01T22:54:45.171Z,50.00
2023-04-01T22:59:58.311Z,44.40
2023-04-01T23:05:05.138Z,48.00
2023-04-01T23:10:22.333Z,45.40
2023-04-01T23:15:47.740Z,50.40
2023-04-01T23:21:11.626Z,45.90
2023-04-01T23:26:27.093Z,51.40
2023-04-01T23:31:36.772Z,54.10
2023-04-01T23:36:40.883Z,55.80
2023-04-01T23:42:04.265Z,59.50
2023-04-01T23:47:29.507Z,69.60
2023-04-01T23:52:42.791Z,70.50
2023-04-01T23:58:28.084Z,76.50
